Time;durP1;ratioP1;P1;durP2;ratioP2;P2;SDS_P1;SDS_P2;PMS_P1;PMS_P2;Temp;Humidity;BMP_temperature;BMP_pressure;BME280_temperature;BME280_humidity;BME280_pressure;Samples;Min_cycle;Max_cycle;Signal;HPM_P1;HPM_P2
2022/07/27 00:00:14;;;;;;;2.22;1.20;;;24.30;50.70;;;;;;6066235;23;93213;-85
2022/07/27 00:02:40;;;;;;;3.08;1.48;;;24.30;50.80;;;;;;6040825;23;96426;-84
2022/07/27 00:05:06;;;;;;;3.08;1.15;;;24.30;50.70;;;;;;6067773;23;91990;-84
2022/07/27 00:07:31;;;;;;;3.50;1.52;;;24.30;50.60;;;;;;6040448;23;91972;-84
2022/07/27 00:09:57;;;;;;;3.95;1.25;;;24.30;50.80;;;;;;6039594;23;96542;-84
2022/07/27 00:12:23;;;;;;;1.95;0.98;;;24.30;50.80;;;;;;6066621;23;93685;-84
2022/07/27 00:14:48;;;;;;;3.42;1.20;;;24.30;50.80;;;;;;6066807;23;92268;-85
2022/07/27 00:17:14;;;;;;;2.45;1.02;;;24.30;50.80;;;;;;6068005;23;92298;-84
2022/07/27 00:19:40;;;;;;;5.25;1.50;;;24.30;50.90;;;;;;6066613;23;93634;-84
2022/07/27 00:22:05;;;;;;;4.25;1.52;;;24.30;50.80;;;;;;6065965;23;93283;-84
2022/07/27 00:24:31;;;;;;;1.70;0.98;;;24.30;50.80;;;;;;6064370;23;91915;-84
2022/07/27 00:26:56;;;;;;;2.35;1.10;;;24.30;50.80;;;;;;6065844;23;91127;-84
2022/07/27 00:29:22;;;;;;;1.67;1.08;;;24.30;50.80;;;;;;6066249;23;93835;-85
2022/07/27 00:31:50;;;;;;;1.70;0.98;;;24.30;50.90;;;;;;6066423;23;93154;-84
2022/07/27 00:34:23;;;;;;;2.85;1.10;;;24.30;50.80;;;;;;6040409;23;93682;-84
2022/07/27 00:36:49;;;;;;;1.58;1.00;;;24.30;50.80;;;;;;6066979;23;92307;-84
2022/07/27 00:39:14;;;;;;;2.45;1.38;;;24.30;51.00;;;;;;6040030;23;94624;-84
2022/07/27 00:41:40;;;;;;;3.08;1.08;;;24.30;51.10;;;;;;6066613;23;93244;-85
2022/07/27 00:44:06;;;;;;;2.15;1.00;;;24.30;51.10;;;;;;6066871;23;92383;-85
2022/07/27 00:46:32;;;;;;;2.58;1.10;;;24.30;51.10;;;;;;6067480;23;92207;-85
2022/07/27 00:48:58;;;;;;;2.97;1.10;;;24.30;51.10;;;;;;6067962;23;93383;-84
2022/07/27 00:51:24;;;;;;;2.20;1.00;;;24.30;51.10;;;;;;6068449;23;93406;-84
2022/07/27 00:53:54;;;;;;;1.35;0.93;;;24.30;51.30;;;;;;6068662;23;91775;-85
2022/07/27 00:56:21;;;;;;;1.95;1.10;;;24.30;51.30;;;;;;6041780;23;91938;-84
2022/07/27 00:58:48;;;;;;;1.63;1.05;;;24.30;51.30;;;;;;6040566;23;95865;-84
2022/07/27 01:01:15;;;;;;;1.35;0.93;;;24.30;51.40;;;;;;6040760;23;97719;-85
2022/07/27 01:03:41;;;;;;;1.58;0.95;;;24.30;51.40;;;;;;6042163;23;92269;-84
2022/07/27 01:06:07;;;;;;;2.58;1.02;;;24.30;51.50;;;;;;6067487;23;92220;-84
2022/07/27 01:08:34;;;;;;;2.85;1.02;;;24.30;51.50;;;;;;6067976;23;92874;-84
2022/07/27 01:11:03;;;;;;;1.80;0.90;;;24.30;51.50;;;;;;6067538;23;93220;-84
2022/07/27 01:13:33;;;;;;;2.60;1.20;;;24.30;51.60;;;;;;6068355;23;92322;-84
2022/07/27 01:15:59;;;;;;;1.52;0.93;;;24.30;51.50;;;;;;6068503;23;91483;-85
2022/07/27 01:18:36;;;;;;;2.47;1.10;;;24.20;51.60;;;;;;6041353;23;95414;-84
2022/07/27 01:21:04;;;;;;;1.33;1.05;;;24.20;51.50;;;;;;6067511;23;93080;-85
2022/07/27 01:23:31;;;;;;;2.03;1.00;;;24.20;51.60;;;;;;6036095;23;92870;-85
2022/07/27 01:25:58;;;;;;;1.90;1.08;;;24.20;51.60;;;;;;6036591;23;92364;-84
2022/07/27 01:28:24;;;;;;;1.85;1.10;;;24.20;51.60;;;;;;6035306;23;92960;-84
2022/07/27 01:30:49;;;;;;;2.00;1.00;;;24.20;51.70;;;;;;6035751;23;92947;-85
2022/07/27 01:33:15;;;;;;;3.05;1.02;;;24.20;51.80;;;;;;6011769;23;92363;-85
2022/07/27 01:35:41;;;;;;;1.65;0.90;;;24.20;51.80;;;;;;6011021;23;92223;-84
2022/07/27 01:38:10;;;;;;;1.88;1.00;;;24.20;51.80;;;;;;6011209;23;95987;-85
2022/07/27 01:40:38;;;;;;;1.98;1.02;;;24.20;51.80;;;;;;6035873;23;93077;-84
2022/07/27 01:43:16;;;;;;;2.13;1.15;;;24.20;51.80;;;;;;6036191;23;91764;-85
2022/07/27 01:45:41;;;;;;;3.00;1.20;;;24.20;51.90;;;;;;6035061;23;92029;-85
2022/07/27 01:48:08;;;;;;;2.13;0.98;;;24.20;52.00;;;;;;6009653;23;97892;-84
2022/07/27 01:50:34;;;;;;;2.30;1.38;;;24.20;51.90;;;;;;6035162;23;94134;-84
2022/07/27 01:52:59;;;;;;;1.90;1.00;;;24.20;52.00;;;;;;6035708;23;92052;-84
2022/07/27 01:55:25;;;;;;;2.45;1.10;;;24.10;51.90;;;;;;6040842;23;92460;-84
2022/07/27 01:57:51;;;;;;;1.25;0.95;;;24.20;52.10;;;;;;6066846;23;93453;-85
2022/07/27 02:00:16;;;;;;;1.83;0.90;;;24.20;52.00;;;;;;6068337;23;93280;-84
2022/07/27 02:02:42;;;;;;;1.65;1.00;;;24.20;52.10;;;;;;6042383;23;91815;-84
2022/07/27 02:05:10;;;;;;;2.05;1.20;;;24.10;52.00;;;;;;6068180;23;91234;-84
2022/07/27 02:07:38;;;;;;;2.65;1.10;;;24.10;51.90;;;;;;6006688;23;94733;-84
2022/07/27 02:10:04;;;;;;;2.78;0.90;;;24.10;52.10;;;;;;6006598;23;93248;-85
2022/07/27 02:12:36;;;;;;;1.17;0.90;;;24.10;52.60;;;;;;6006927;23;92890;-84
2022/07/27 02:15:14;;;;;;;1.80;1.00;;;24.10;52.00;;;;;;6006476;23;91964;-84
2022/07/27 02:17:43;;;;;;;1.90;1.00;;;24.10;52.00;;;;;;6006615;23;93558;-84
2022/07/27 02:20:10;;;;;;;1.60;0.95;;;24.10;52.10;;;;;;6006097;23;92485;-84
2022/07/27 02:22:36;;;;;;;1.35;0.90;;;24.10;52.00;;;;;;6006524;23;92215;-84
2022/07/27 02:25:03;;;;;;;2.05;1.13;;;24.10;52.00;;;;;;6006920;23;92014;-84
2022/07/27 02:27:28;;;;;;;1.40;0.88;;;24.20;52.30;;;;;;6006392;23;95458;-85
2022/07/27 02:29:54;;;;;;;1.23;0.90;;;24.10;52.20;;;;;;6005567;23;94479;-84
2022/07/27 02:32:20;;;;;;;1.42;0.90;;;24.10;52.20;;;;;;6006963;23;91926;-85
2022/07/27 02:34:46;;;;;;;1.73;0.95;;;24.10;52.20;;;;;;6006542;23;92313;-84
2022/07/27 02:37:12;;;;;;;1.35;0.82;;;24.10;52.30;;;;;;5981523;23;97934;-84
2022/07/27 02:39:38;;;;;;;1.60;1.08;;;24.10;52.20;;;;;;6038106;23;97593;-84
2022/07/27 02:42:04;;;;;;;1.90;1.10;;;24.10;52.20;;;;;;6041750;23;92013;-85
2022/07/27 02:44:30;;;;;;;1.45;1.00;;;24.10;52.20;;;;;;6067304;23;92358;-84
2022/07/27 02:46:55;;;;;;;2.58;1.00;;;24.10;52.30;;;;;;6066694;23;92707;-84
2022/07/27 02:49:21;;;;;;;1.75;0.93;;;24.10;52.10;;;;;;6067451;23;92937;-84
2022/07/27 02:51:50;;;;;;;1.48;0.90;;;24.00;52.40;;;;;;6041450;23;92355;-84
2022/07/27 02:54:18;;;;;;;1.52;1.00;;;24.00;52.30;;;;;;6068374;23;91235;-84
2022/07/27 02:56:53;;;;;;;1.30;0.85;;;24.00;52.20;;;;;;6067761;23;93039;-84
2022/07/27 02:59:20;;;;;;;2.25;1.20;;;24.00;52.40;;;;;;6067271;23;93351;-84
2022/07/27 03:01:46;;;;;;;1.95;1.10;;;24.00;52.30;;;;;;6067219;23;92841;-84
2022/07/27 03:04:12;;;;;;;1.58;0.88;;;24.00;52.40;;;;;;6067245;23;92312;-85
2022/07/27 03:06:38;;;;;;;0.98;0.88;;;24.00;52.40;;;;;;6040705;23;96468;-84
2022/07/27 03:09:03;;;;;;;1.02;0.80;;;24.00;52.30;;;;;;6067221;23;93183;-84
2022/07/27 03:11:29;;;;;;;1.45;1.00;;;24.00;52.40;;;;;;6040647;23;92202;-85
2022/07/27 03:13:55;;;;;;;1.50;0.82;;;24.00;52.60;;;;;;6067534;23;91864;-84
2022/07/27 03:16:21;;;;;;;0.95;0.80;;;24.00;52.40;;;;;;6067467;23;94110;-84
2022/07/27 03:18:46;;;;;;;1.25;0.90;;;24.00;52.60;;;;;;6067491;23;93049;-84
2022/07/27 03:21:12;;;;;;;1.17;0.82;;;24.00;52.60;;;;;;6067770;23;92319;-84
2022/07/27 03:23:38;;;;;;;1.73;1.05;;;24.00;52.50;;;;;;6067036;23;91850;-84
2022/07/27 03:26:04;;;;;;;2.13;0.90;;;24.00;52.50;;;;;;6066109;23;94913;-84
2022/07/27 03:28:29;;;;;;;1.30;0.98;;;24.00;52.50;;;;;;6067130;23;93728;-85
2022/07/27 03:30:55;;;;;;;1.30;1.08;;;24.00;52.60;;;;;;6041227;23;92256;-84
2022/07/27 03:33:21;;;;;;;1.25;0.85;;;24.00;52.70;;;;;;6067275;23;92317;-84
2022/07/27 03:35:46;;;;;;;1.00;0.75;;;24.00;52.60;;;;;;6067341;23;93354;-84
2022/07/27 03:38:12;;;;;;;1.20;0.88;;;24.00;52.70;;;;;;6066671;23;93267;-84
2022/07/27 03:40:38;;;;;;;1.75;1.00;;;24.00;52.80;;;;;;6067979;23;92372;-84
2022/07/27 03:43:04;;;;;;;1.52;1.00;;;24.00;52.70;;;;;;6041115;23;91870;-85
2022/07/27 03:45:36;;;;;;;1.90;1.08;;;23.90;52.70;;;;;;6039967;23;96266;-85
2022/07/27 03:48:02;;;;;;;1.98;1.10;;;23.90;52.70;;;;;;6066012;23;91963;-85
2022/07/27 03:50:28;;;;;;;1.25;0.88;;;23.90;52.70;;;;;;6066402;23;93274;-84
2022/07/27 03:52:53;;;;;;;1.23;0.85;;;23.90;52.70;;;;;;6040581;23;91918;-84
2022/07/27 03:55:20;;;;;;;1.73;0.80;;;23.90;52.80;;;;;;6066774;23;92346;-84
2022/07/27 03:57:45;;;;;;;1.27;0.80;;;23.90;52.80;;;;;;6067729;23;93146;-84
2022/07/27 04:00:12;;;;;;;0.77;0.77;;;23.90;52.80;;;;;;6066589;23;92244;-84
2022/07/27 04:02:39;;;;;;;1.08;0.80;;;23.90;52.80;;;;;;6067114;23;92399;-84
2022/07/27 04:05:05;;;;;;;1.35;0.90;;;23.90;53.00;;;;;;6040760;23;96850;-84
2022/07/27 04:07:31;;;;;;;1.02;0.73;;;23.90;52.90;;;;;;6067592;23;93179;-84
2022/07/27 04:09:57;;;;;;;0.73;0.73;;;23.90;52.90;;;;;;6067031;23;91949;-85
2022/07/27 04:12:22;;;;;;;1.00;0.90;;;23.90;52.90;;;;;;6040378;23;92405;-84
2022/07/27 04:14:48;;;;;;;1.20;0.90;;;23.90;53.00;;;;;;6066116;23;94438;-84
2022/07/27 04:17:14;;;;;;;1.50;1.10;;;23.90;52.90;;;;;;6066995;23;94250;-84
2022/07/27 04:19:39;;;;;;;1.02;0.80;;;23.90;53.00;;;;;;6066331;23;92372;-84
2022/07/27 04:22:05;;;;;;;2.13;1.10;;;23.90;53.10;;;;;;6064075;23;92229;-84
2022/07/27 04:24:30;;;;;;;0.98;0.88;;;23.90;53.00;;;;;;6063660;23;93569;-84
2022/07/27 04:26:56;;;;;;;1.67;0.98;;;23.80;53.10;;;;;;6038938;23;95020;-84
2022/07/27 04:29:21;;;;;;;1.27;0.80;;;23.80;53.00;;;;;;6040064;23;91892;-84
2022/07/27 04:31:48;;;;;;;1.35;0.90;;;23.90;53.00;;;;;;6067063;23;91573;-84
2022/07/27 04:34:18;;;;;;;2.28;1.30;;;23.90;53.10;;;;;;6040050;23;97062;-84
2022/07/27 04:36:44;;;;;;;0.80;0.80;;;23.90;53.20;;;;;;6040249;23;96493;-84
2022/07/27 04:39:10;;;;;;;1.67;0.90;;;23.90;53.00;;;;;;6039702;23;93246;-84
2022/07/27 04:41:35;;;;;;;1.10;1.00;;;23.90;53.20;;;;;;6066685;23;92208;-84
2022/07/27 04:44:01;;;;;;;1.58;1.05;;;23.90;53.00;;;;;;6066142;23;93480;-85
2022/07/27 04:46:28;;;;;;;1.27;0.90;;;23.90;53.10;;;;;;6039228;23;95422;-84
2022/07/27 04:48:54;;;;;;;2.17;0.90;;;23.90;53.10;;;;;;6067822;23;92245;-84
2022/07/27 04:51:19;;;;;;;1.13;0.80;;;23.90;53.10;;;;;;6066695;23;91864;-85
2022/07/27 04:53:45;;;;;;;1.45;1.00;;;23.90;53.00;;;;;;6066421;23;92576;-85
2022/07/27 04:56:10;;;;;;;1.10;1.00;;;23.90;53.00;;;;;;6067351;23;93126;-85
2022/07/27 04:58:36;;;;;;;0.70;0.70;;;24.00;53.00;;;;;;6066937;23;91868;-85
2022/07/27 05:01:02;;;;;;;2.45;1.08;;;24.00;52.90;;;;;;6066542;23;91942;-85
2022/07/27 05:03:27;;;;;;;1.10;0.98;;;24.00;52.80;;;;;;6039714;23;97683;-84
2022/07/27 05:05:53;;;;;;;1.77;1.00;;;24.00;52.90;;;;;;6040170;23;96822;-85
2022/07/27 05:08:19;;;;;;;1.10;0.95;;;24.00;52.70;;;;;;6066989;23;92314;-85
2022/07/27 05:10:46;;;;;;;1.02;0.80;;;24.00;52.60;;;;;;6066872;23;92194;-85
2022/07/27 05:13:12;;;;;;;1.15;0.95;;;24.10;52.80;;;;;;6039686;23;97256;-85
2022/07/27 05:15:38;;;;;;;1.17;0.93;;;24.10;52.70;;;;;;6066029;23;93827;-85
2022/07/27 05:18:04;;;;;;;1.33;0.98;;;24.20;52.60;;;;;;6066837;23;92404;-85
2022/07/27 05:20:32;;;;;;;0.75;0.60;;;24.20;52.70;;;;;;6066834;23;91156;-84
2022/07/27 05:22:58;;;;;;;1.17;0.77;;;24.20;52.50;;;;;;6067185;23;93620;-85
2022/07/27 05:25:27;;;;;;;0.80;0.75;;;24.30;52.60;;;;;;6039150;23;96400;-85
2022/07/27 05:27:52;;;;;;;1.20;0.80;;;24.30;52.50;;;;;;6066277;23;92937;-85
2022/07/27 05:30:19;;;;;;;1.10;0.77;;;24.30;52.60;;;;;;6065923;23;92187;-85
2022/07/27 05:32:46;;;;;;;1.52;1.00;;;24.30;52.60;;;;;;6067249;23;93122;-85
2022/07/27 05:35:12;;;;;;;0.85;0.63;;;24.30;52.60;;;;;;6066795;23;93101;-85
2022/07/27 05:37:38;;;;;;;1.88;0.80;;;24.40;52.60;;;;;;6067765;23;91928;-85
2022/07/27 05:40:04;;;;;;;1.33;0.85;;;24.40;52.60;;;;;;6067720;23;91834;-85
2022/07/27 05:42:30;;;;;;;1.17;0.90;;;24.40;52.60;;;;;;6066794;23;93614;-85
2022/07/27 05:44:55;;;;;;;1.70;1.10;;;24.40;52.60;;;;;;6068099;23;92968;-85
2022/07/27 05:47:21;;;;;;;0.75;0.70;;;24.50;52.60;;;;;;6066530;23;92401;-85
2022/07/27 05:49:47;;;;;;;1.08;0.90;;;24.50;52.60;;;;;;6041635;23;91861;-85
2022/07/27 05:52:13;;;;;;;0.88;0.80;;;24.50;52.60;;;;;;6040080;23;97803;-85
2022/07/27 05:54:38;;;;;;;1.15;0.80;;;24.50;52.60;;;;;;6041243;23;95908;-85
2022/07/27 05:57:04;;;;;;;2.28;0.93;;;24.50;52.60;;;;;;6067657;23;92236;-85
2022/07/27 05:59:31;;;;;;;0.60;0.60;;;24.60;52.60;;;;;;6066860;23;91944;-85
2022/07/27 06:01:58;;;;;;;0.70;0.70;;;24.60;52.50;;;;;;6067643;23;93626;-85
2022/07/27 06:04:32;;;;;;;1.00;0.82;;;24.60;52.60;;;;;;6066856;23;92848;-85
2022/07/27 06:09:42;;;;;;;6.30;1.10;;;24.70;52.80;;;;;;6068280;23;91167;-85
2022/07/27 06:12:08;;;;;;;2.88;1.33;;;24.70;52.30;;;;;;6067190;23;94006;-85
2022/07/27 06:14:34;;;;;;;4.85;1.60;;;24.60;49.90;;;;;;6040943;23;94902;-85
2022/07/27 06:16:59;;;;;;;7.80;1.90;;;24.50;48.80;;;;;;6067168;23;93345;-89
2022/07/27 06:19:25;;;;;;;6.32;1.35;;;24.40;48.10;;;;;;6035492;23;92270;-85
2022/07/27 06:21:50;;;;;;;4.28;1.45;;;24.40;48.20;;;;;;6034522;23;96583;-85
2022/07/27 06:24:16;;;;;;;10.15;1.80;;;24.30;48.20;;;;;;6035727;23;93323;-84
2022/07/27 06:26:42;;;;;;;5.57;1.70;;;24.30;47.10;;;;;;6038579;23;92404;-84
2022/07/27 06:29:08;;;;;;;5.38;1.48;;;24.20;47.50;;;;;;6035166;23;92506;-85
2022/07/27 06:31:34;;;;;;;4.88;1.45;;;24.10;47.00;;;;;;6010442;23;96887;-85
2022/07/27 06:33:59;;;;;;;6.30;1.55;;;24.00;47.00;;;;;;6035908;23;92980;-85
2022/07/27 06:36:27;;;;;;;7.88;1.50;;;24.00;47.40;;;;;;6011026;23;92547;-85
2022/07/27 06:39:01;;;;;;;6.82;1.33;;;24.10;46.80;;;;;;6010702;23;92488;-85
2022/07/27 06:41:27;;;;;;;5.75;1.50;;;24.10;46.40;;;;;;6032911;23;93644;-84
2022/07/27 06:43:53;;;;;;;6.47;1.67;;;24.10;46.40;;;;;;6035319;23;94640;-86
2022/07/27 06:46:18;;;;;;;3.38;1.23;;;24.10;45.80;;;;;;6036305;23;92173;-85
2022/07/27 06:48:44;;;;;;;11.93;1.63;;;24.20;45.30;;;;;;6011107;23;92516;-85
2022/07/27 06:51:09;;;;;;;7.05;1.67;;;24.10;44.50;;;;;;6060822;23;93560;-85
2022/07/27 06:53:35;;;;;;;6.45;1.17;;;24.00;44.40;;;;;;6040732;23;95257;-86
2022/07/27 06:56:02;;;;;;;5.07;1.35;;;23.90;44.70;;;;;;6067541;23;91853;-85
2022/07/27 06:58:38;;;;;;;4.80;1.20;;;23.90;45.30;;;;;;6066965;23;91414;-86
2022/07/27 07:01:04;;;;;;;4.85;1.58;;;24.00;45.50;;;;;;6044526;23;94981;-85
2022/07/27 07:03:30;;;;;;;6.47;1.27;;;24.00;45.30;;;;;;6067394;23;92392;-86
2022/07/27 07:05:59;;;;;;;7.50;1.10;;;24.00;45.40;;;;;;6067088;23;93243;-87
2022/07/27 07:08:42;;;;;;;6.03;1.10;;;24.00;45.30;;;;;;6040579;23;92467;-87
2022/07/27 07:11:10;;;;;;;4.93;1.20;;;24.00;45.50;;;;;;6067452;23;92591;-86
2022/07/27 07:13:36;;;;;;;3.07;0.97;;;24.00;45.50;;;;;;6066972;23;92403;-86
2022/07/27 07:16:02;;;;;;;3.88;0.80;;;24.00;45.00;;;;;;6065855;23;91915;-86
2022/07/27 07:18:28;;;;;;;4.65;1.33;;;24.00;45.30;;;;;;6067151;23;92318;-86
2022/07/27 07:20:53;;;;;;;5.18;1.23;;;24.00;44.90;;;;;;6040610;23;94797;-88
2022/07/27 07:23:19;;;;;;;10.23;1.27;;;24.00;45.50;;;;;;6040960;23;94490;-87
2022/07/27 07:25:44;;;;;;;5.88;1.20;;;24.10;46.00;;;;;;6067715;23;91914;-87
2022/07/27 07:28:10;;;;;;;2.60;1.00;;;24.10;46.20;;;;;;6040573;23;92296;-87
2022/07/27 07:30:36;;;;;;;4.28;1.20;;;24.10;46.00;;;;;;6066089;23;93683;-87
2022/07/27 07:33:02;;;;;;;9.13;1.50;;;24.10;45.40;;;;;;6041318;23;95502;-86
2022/07/27 07:35:27;;;;;;;133.45;22.08;;;24.10;45.90;;;;;;6040490;23;91995;-86
2022/07/27 07:37:53;;;;;;;57.90;9.18;;;24.10;45.60;;;;;;6066598;23;92634;-86
2022/07/27 07:40:19;;;;;;;55.08;11.00;;;24.10;45.70;;;;;;6039961;23;94963;-86
2022/07/27 07:43:00;;;;;;;45.47;9.73;;;24.10;45.10;;;;;;6065736;23;93699;-91
2022/07/27 07:45:27;;;;;;;35.67;6.40;;;24.10;45.30;;;;;;6040561;23;91955;-86
2022/07/27 07:47:54;;;;;;;29.48;6.05;;;24.10;45.20;;;;;;5993482;22;91640;-87
2022/07/27 07:50:21;;;;;;;20.80;3.92;;;24.10;44.90;;;;;;6039565;23;97470;-86
2022/07/27 07:52:47;;;;;;;13.73;3.17;;;24.00;44.30;;;;;;6040880;23;95851;-86
2022/07/27 07:55:13;;;;;;;14.70;2.92;;;24.00;44.10;;;;;;6067104;23;93230;-85
2022/07/27 07:57:39;;;;;;;15.05;2.17;;;23.90;43.80;;;;;;6067044;23;91849;-86
2022/07/27 08:00:07;;;;;;;9.85;2.35;;;24.00;43.80;;;;;;6066093;23;93179;-86
2022/07/27 08:02:40;;;;;;;6.75;1.45;;;24.00;43.90;;;;;;6041215;23;95241;-86
2022/07/27 08:05:07;;;;;;;7.78;1.95;;;24.00;43.80;;;;;;6066346;23;92365;-86
2022/07/27 08:07:32;;;;;;;9.77;2.55;;;24.00;44.20;;;;;;6067894;23;91856;-84
2022/07/27 08:09:58;;;;;;;6.32;1.80;;;24.00;43.70;;;;;;6066874;23;93328;-85
2022/07/27 08:12:23;;;;;;;10.13;2.40;;;24.10;43.90;;;;;;6065350;23;92906;-87
2022/07/27 08:14:49;;;;;;;8.65;2.17;;;24.20;43.70;;;;;;6067239;23;92706;-87
2022/07/27 08:17:15;;;;;;;6.63;1.55;;;24.20;43.40;;;;;;6044815;23;91934;-86
2022/07/27 08:19:41;;;;;;;6.22;1.52;;;24.20;43.80;;;;;;6039246;23;97601;-88
2022/07/27 08:22:07;;;;;;;4.85;1.40;;;24.20;44.30;;;;;;6067615;23;94349;-88
2022/07/27 08:24:32;;;;;;;4.93;1.10;;;24.20;43.30;;;;;;6065812;23;92584;-86
2022/07/27 08:26:58;;;;;;;4.80;1.10;;;24.10;42.40;;;;;;6035546;23;92447;-86
2022/07/27 08:29:24;;;;;;;3.28;0.90;;;24.10;42.40;;;;;;6036405;23;96357;-87
2022/07/27 08:31:49;;;;;;;2.63;1.20;;;24.10;41.70;;;;;;6065979;23;93159;-87
2022/07/27 08:34:15;;;;;;;4.18;0.88;;;24.10;41.40;;;;;;6041092;23;92404;-87
2022/07/27 08:36:41;;;;;;;4.57;0.95;;;24.10;41.60;;;;;;6067237;23;92097;-87
2022/07/27 08:39:07;;;;;;;2.85;0.90;;;24.20;40.70;;;;;;6040619;23;95860;-87
2022/07/27 08:41:37;;;;;;;4.03;0.95;;;24.10;41.10;;;;;;6066914;23;93280;-87
2022/07/27 08:44:05;;;;;;;1.55;0.80;;;24.10;41.20;;;;;;6040017;23;93148;-86
2022/07/27 08:46:31;;;;;;;5.30;0.85;;;24.10;41.20;;;;;;6040579;23;92000;-87
2022/07/27 08:49:00;;;;;;;2.10;0.77;;;24.10;41.60;;;;;;6066984;23;93475;-86
2022/07/27 08:51:26;;;;;;;3.45;0.70;;;24.10;41.90;;;;;;6067378;23;93270;-86
2022/07/27 08:53:53;;;;;;;2.13;0.75;;;24.10;41.70;;;;;;6041462;23;92199;-86
2022/07/27 08:56:19;;;;;;;2.60;0.80;;;24.10;42.20;;;;;;6040392;23;91905;-86
2022/07/27 08:58:45;;;;;;;3.33;0.70;;;24.10;41.60;;;;;;6066156;23;93741;-85
2022/07/27 09:01:11;;;;;;;3.83;1.15;;;24.10;41.20;;;;;;6067046;23;93132;-86
2022/07/27 09:03:36;;;;;;;4.03;0.82;;;24.00;40.70;;;;;;6040654;23;91918;-86
2022/07/27 09:06:03;;;;;;;3.17;0.73;;;24.00;40.60;;;;;;6067379;23;92311;-86
2022/07/27 09:08:30;;;;;;;7.38;1.35;;;24.00;41.10;;;;;;6066947;23;96325;-85
2022/07/27 09:10:58;;;;;;;2.13;0.80;;;24.00;41.30;;;;;;6041374;23;97183;-86
2022/07/27 09:13:25;;;;;;;3.47;0.98;;;24.10;41.20;;;;;;6067711;23;91854;-87
2022/07/27 09:15:55;;;;;;;3.15;0.80;;;24.00;41.50;;;;;;6068889;23;92361;-86
2022/07/27 09:18:23;;;;;;;5.97;0.88;;;24.10;42.00;;;;;;6041596;23;96470;-86
2022/07/27 09:21:09;;;;;;;4.07;0.70;;;24.10;41.70;;;;;;6041081;23;95461;-86
2022/07/27 09:23:35;;;;;;;6.72;1.30;;;24.10;41.10;;;;;;6040380;23;92314;-86
2022/07/27 09:26:30;;;;;;;6.85;1.75;;;24.00;40.80;;;;;;6069222;23;91185;-86
2022/07/27 09:29:02;;;;;;;9.23;1.67;;;24.00;40.40;;;;;;5921219;23;93672;-86
2022/07/27 09:31:29;;;;;;;5.65;1.10;;;24.10;40.60;;;;;;5897514;23;96362;-85
2022/07/27 09:33:57;;;;;;;3.65;1.10;;;24.10;40.10;;;;;;5921555;23;93278;-85
2022/07/27 09:36:25;;;;;;;6.30;1.00;;;24.10;39.70;;;;;;5898251;23;92307;-86
2022/07/27 09:39:04;;;;;;;3.65;0.90;;;24.10;39.30;;;;;;5921072;23;93404;-87
2022/07/27 09:41:42;;;;;;;49.65;11.38;;;24.10;39.20;;;;;;5897046;23;96055;-87
2022/07/27 09:44:08;;;;;;;52.92;14.05;;;24.10;39.40;;;;;;5897312;23;91962;-86
2022/07/27 09:46:36;;;;;;;51.17;11.15;;;24.10;39.40;;;;;;5895894;23;92000;-86
2022/07/27 09:49:03;;;;;;;66.43;14.13;;;24.10;38.90;;;;;;5920605;23;93400;-85
2022/07/27 09:51:29;;;;;;;46.03;9.25;;;24.20;39.60;;;;;;5897189;23;96831;-86
2022/07/27 09:53:56;;;;;;;28.08;6.55;;;24.30;39.40;;;;;;5897801;23;91912;-86
2022/07/27 09:56:28;;;;;;;19.80;6.05;;;24.30;38.50;;;;;;5897808;23;92737;-85
2022/07/27 09:58:56;;;;;;;24.52;6.25;;;24.30;39.00;;;;;;5920866;23;93653;-85
2022/07/27 10:01:28;;;;;;;17.57;5.50;;;24.30;38.80;;;;;;5898053;23;96876;-85
2022/07/27 10:03:58;;;;;;;15.75;5.15;;;24.30;38.90;;;;;;5897652;23;92307;-85
2022/07/27 10:06:33;;;;;;;;;;;24.20;39.20;;;;;;6029750;23;92374;-85
2022/07/27 10:08:59;;;;;;;19.83;4.47;;;24.30;39.60;;;;;;6068632;23;93120;-84
2022/07/27 10:11:26;;;;;;;14.85;4.07;;;24.30;39.90;;;;;;6068536;23;92484;-86
2022/07/27 10:13:53;;;;;;;20.90;4.68;;;24.30;40.50;;;;;;6067482;23;92124;-86
2022/07/27 10:16:22;;;;;;;20.67;4.60;;;24.40;40.90;;;;;;6041891;23;91525;-87
2022/07/27 10:19:20;;;;;;;18.57;3.87;;;24.40;41.10;;;;;;6039901;23;97438;-84
2022/07/27 10:21:47;;;;;;;16.87;3.97;;;24.40;41.50;;;;;;6067436;23;92133;-85
2022/07/27 10:24:27;;;;;;;17.90;4.30;;;24.30;41.60;;;;;;6040705;23;92804;-85
2022/07/27 10:26:54;;;;;;;15.38;3.53;;;24.30;41.80;;;;;;6068334;23;92413;-85
2022/07/27 10:29:21;;;;;;;13.65;3.20;;;24.30;41.60;;;;;;6067925;23;93047;-85
2022/07/27 10:31:53;;;;;;;20.52;3.40;;;24.30;42.20;;;;;;6067845;23;93668;-86
2022/07/27 10:34:36;;;;;;;15.00;2.85;;;24.40;42.30;;;;;;6041780;23;91962;-85
2022/07/27 10:37:10;;;;;;;15.27;2.90;;;24.30;42.40;;;;;;6068615;23;92364;-86
2022/07/27 10:39:48;;;;;;;12.63;2.50;;;24.30;42.10;;;;;;6040781;23;96462;-86
2022/07/27 10:42:23;;;;;;;8.93;2.33;;;24.30;42.20;;;;;;6068019;23;93431;-87
2022/07/27 10:44:59;;;;;;;12.82;2.70;;;24.30;41.90;;;;;;6041210;23;91822;-86
2022/07/27 10:47:41;;;;;;;6.45;1.50;;;24.40;41.70;;;;;;6067199;23;91943;-87
2022/07/27 10:50:16;;;;;;;8.68;2.20;;;24.30;41.10;;;;;;6066990;23;94497;-86
2022/07/27 10:52:46;;;;;;;8.30;1.40;;;24.30;41.30;;;;;;6068852;23;95439;-86
2022/07/27 10:55:31;;;;;;;10.15;1.67;;;24.40;41.60;;;;;;6042602;23;92346;-88
2022/07/27 10:58:17;;;;;;;4.95;1.48;;;24.30;41.00;;;;;;6042058;23;92131;-87
2022/07/27 11:00:49;;;;;;;10.38;1.63;;;24.30;40.40;;;;;;6041260;23;97025;-87
2022/07/27 11:03:35;;;;;;;9.80;1.80;;;24.40;41.50;;;;;;6067988;23;93719;-87
2022/07/27 11:06:08;;;;;;;7.63;1.70;;;24.40;41.60;;;;;;6068426;23;92376;-85
2022/07/27 11:08:36;;;;;;;12.20;1.70;;;24.40;41.90;;;;;;6042814;23;91475;-85
2022/07/27 11:11:02;;;;;;;9.02;1.30;;;24.30;41.30;;;;;;6041977;23;96432;-85
2022/07/27 11:13:29;;;;;;;8.55;1.33;;;24.30;40.70;;;;;;6067922;23;93779;-85
2022/07/27 11:16:00;;;;;;;10.65;1.23;;;24.30;40.40;;;;;;6068144;23;92964;-86
2022/07/27 11:18:37;;;;;;;6.05;1.15;;;24.30;40.50;;;;;;6042273;23;92343;-87
2022/07/27 11:21:27;;;;;;;12.93;1.90;;;24.30;41.00;;;;;;6067340;23;92723;-86
2022/07/27 11:24:04;;;;;;;9.43;1.52;;;24.40;42.00;;;;;;6041412;23;94751;-87
2022/07/27 11:26:42;;;;;;;7.35;1.13;;;24.40;41.10;;;;;;6039043;23;92399;-86
2022/07/27 11:29:10;;;;;;;4.50;1.20;;;24.30;41.10;;;;;;6065873;23;92213;-86
2022/07/27 11:31:37;;;;;;;8.90;1.58;;;24.30;40.60;;;;;;6066042;23;93526;-86
2022/07/27 11:34:03;;;;;;;5.32;1.20;;;24.40;41.80;;;;;;6067262;23;93366;-86
2022/07/27 11:36:41;;;;;;;8.80;1.30;;;24.40;41.90;;;;;;6041260;23;92027;-85
2022/07/27 11:39:10;;;;;;;7.88;1.40;;;24.40;41.90;;;;;;6040647;23;91763;-86
2022/07/27 11:41:37;;;;;;;11.20;1.50;;;24.40;42.00;;;;;;6065899;23;94410;-86
2022/07/27 11:44:15;;;;;;;5.72;1.30;;;24.40;41.60;;;;;;6066486;23;94259;-87
2022/07/27 11:46:43;;;;;;;15.40;1.63;;;24.40;42.10;;;;;;6065997;23;92630;-87
2022/07/27 11:49:25;;;;;;;8.27;1.33;;;24.40;42.10;;;;;;6041622;23;92016;-86
2022/07/27 11:51:55;;;;;;;9.20;1.35;;;24.50;42.00;;;;;;6067085;23;92631;-87
2022/07/27 11:54:32;;;;;;;6.10;1.00;;;24.50;41.20;;;;;;6040155;23;95862;-86
2022/07/27 11:57:02;;;;;;;12.57;1.27;;;24.50;41.20;;;;;;6067038;23;92455;-86
2022/07/27 11:59:34;;;;;;;19.95;1.58;;;24.50;41.60;;;;;;6067109;23;91560;-86
2022/07/27 12:02:03;;;;;;;7.30;1.33;;;24.60;41.50;;;;;;6040910;23;96289;-86
2022/07/27 12:04:31;;;;;;;4.63;0.95;;;24.60;41.90;;;;;;6040903;23;96079;-87
2022/07/27 12:06:56;;;;;;;9.25;1.42;;;24.50;41.90;;;;;;6065486;23;93460;-86
2022/07/27 12:09:22;;;;;;;3.92;1.00;;;24.50;42.00;;;;;;6040717;23;92354;-85
2022/07/27 12:11:52;;;;;;;3.92;1.45;;;24.40;42.10;;;;;;6040746;23;95745;-87
2022/07/27 12:14:26;;;;;;;6.57;1.30;;;24.40;41.20;;;;;;6040107;23;94462;-86
2022/07/27 12:17:05;;;;;;;8.48;1.60;;;24.40;41.50;;;;;;6066404;23;91915;-87
2022/07/27 12:19:31;;;;;;;4.78;1.17;;;24.30;40.80;;;;;;6036511;23;92067;-86
2022/07/27 12:21:56;;;;;;;5.82;1.95;;;24.30;41.00;;;;;;6062527;23;93609;-86
2022/07/27 12:24:39;;;;;;;2.58;1.42;;;24.30;40.60;;;;;;6039853;23;95990;-85
2022/07/27 12:27:13;;;;;;;5.70;1.20;;;24.20;39.90;;;;;;6067294;23;91983;-86
2022/07/27 12:30:03;;;;;;;3.70;0.93;;;24.30;40.10;;;;;;6066965;23;91843;-85
2022/07/27 12:32:32;;;;;;;6.25;1.15;;;24.30;40.90;;;;;;6065868;23;94139;-84
2022/07/27 12:34:58;;;;;;;3.55;0.77;;;24.30;40.80;;;;;;6065670;23;94580;-86
2022/07/27 12:37:31;;;;;;;4.60;1.40;;;24.30;40.20;;;;;;6041038;23;91713;-86
2022/07/27 12:39:58;;;;;;;8.00;1.25;;;24.30;41.30;;;;;;6066261;23;91926;-86
2022/07/27 12:42:42;;;;;;;4.93;1.30;;;24.30;41.00;;;;;;6041348;23;95056;-84
2022/07/27 12:45:30;;;;;;;49.65;13.00;;;24.20;40.90;;;;;;6041912;23;95138;-84
2022/07/27 12:48:22;;;;;;;74.37;17.63;;;24.20;40.60;;;;;;6041152;23;92494;-85
2022/07/27 12:51:02;;;;;;;63.17;17.20;;;24.20;40.40;;;;;;6067739;23;91644;-86
2022/07/27 12:53:29;;;;;;;49.00;13.77;;;24.20;40.60;;;;;;6066779;23;93248;-86